sensor_id;sensor_type;location;lat;lon;timestamp;pressure;altitude;pressure_sealevel;temperature;humidity
3524;BME280;1776;53.330;11.498;2024-01-30T00:00:02;23936.75;;;-147.39;68.09
3524;BME280;1776;53.330;11.498;2024-01-30T00:02:29;23967.25;;;-147.39;68.39
3524;BME280;1776;53.330;11.498;2024-01-30T00:04:54;23906.25;;;-147.39;68.45
3524;BME280;1776;53.330;11.498;2024-01-30T00:07:19;23961.16;;;-147.39;68.64
3524;BME280;1776;53.330;11.498;2024-01-30T00:09:46;23948.94;;;-147.39;68.88
3524;BME280;1776;53.330;11.498;2024-01-30T00:12:12;23963.19;;;-147.39;68.89
3524;BME280;1776;53.330;11.498;2024-01-30T00:14:38;23973.34;;;-147.39;69.25
3524;BME280;1776;53.330;11.498;2024-01-30T00:17:03;23908.28;;;-147.39;69.08
3524;BME280;1776;53.330;11.498;2024-01-30T00:19:28;23967.25;;;-147.39;69.36
3524;BME280;1776;53.330;11.498;2024-01-30T00:21:53;23914.38;;;-147.39;69.59
3524;BME280;1776;53.330;11.498;2024-01-30T00:24:19;23946.91;;;-147.39;69.73
3524;BME280;1776;53.330;11.498;2024-01-30T00:26:45;23930.66;;;-147.39;70.26
3524;BME280;1776;53.330;11.498;2024-01-30T00:29:10;23910.31;;;-147.39;69.60
3524;BME280;1776;53.330;11.498;2024-01-30T00:31:35;23965.22;;;-147.39;69.44
3524;BME280;1776;53.330;11.498;2024-01-30T00:34:01;23940.81;;;-147.39;70.04
3524;BME280;1776;53.330;11.498;2024-01-30T00:36:26;23890.00;;;-147.39;70.26
3524;BME280;1776;53.330;11.498;2024-01-30T00:38:51;23930.66;;;-147.39;69.65
3524;BME280;1776;53.330;11.498;2024-01-30T00:41:19;23906.25;;;-147.39;69.75
3524;BME280;1776;53.330;11.498;2024-01-30T00:43:44;23906.25;;;-147.39;69.88
3524;BME280;1776;53.330;11.498;2024-01-30T00:46:10;23924.56;;;-147.39;69.97
3524;BME280;1776;53.330;11.498;2024-01-30T00:48:35;23920.47;;;-147.39;69.60
3524;BME280;1776;53.330;11.498;2024-01-30T00:51:00;23928.63;;;-147.39;69.33
3524;BME280;1776;53.330;11.498;2024-01-30T00:53:26;23892.03;;;-147.39;69.53
3524;BME280;1776;53.330;11.498;2024-01-30T00:55:51;23916.41;;;-147.39;69.77
3524;BME280;1776;53.330;11.498;2024-01-30T00:58:16;23908.28;;;-147.39;69.79
3524;BME280;1776;53.330;11.498;2024-01-30T01:00:44;23938.78;;;-147.39;69.68
3524;BME280;1776;53.330;11.498;2024-01-30T01:03:09;23908.28;;;-147.39;69.63
3524;BME280;1776;53.330;11.498;2024-01-30T01:05:34;23902.19;;;-147.39;69.38
3524;BME280;1776;53.330;11.498;2024-01-30T01:08:00;23924.56;;;-147.39;69.43
3524;BME280;1776;53.330;11.498;2024-01-30T01:10:25;23865.59;;;-147.39;69.78
3524;BME280;1776;53.330;11.498;2024-01-30T01:12:50;23904.22;;;-147.39;70.20
3524;BME280;1776;53.330;11.498;2024-01-30T01:15:15;23873.72;;;-147.39;70.66
3524;BME280;1776;53.330;11.498;2024-01-30T01:17:41;23881.84;;;-147.39;70.64
3524;BME280;1776;53.330;11.498;2024-01-30T01:20:07;23902.19;;;-147.39;70.58
3524;BME280;1776;53.330;11.498;2024-01-30T01:22:33;23890.00;;;-147.39;70.44
3524;BME280;1776;53.330;11.498;2024-01-30T01:24:59;23892.03;;;-147.39;70.36
3524;BME280;1776;53.330;11.498;2024-01-30T01:27:25;23890.00;;;-147.39;70.43
3524;BME280;1776;53.330;11.498;2024-01-30T01:29:50;23926.59;;;-147.39;70.16
3524;BME280;1776;53.330;11.498;2024-01-30T01:32:16;23869.66;;;-147.39;69.90
3524;BME280;1776;53.330;11.498;2024-01-30T01:34:41;23904.22;;;-147.39;70.08
3524;BME280;1776;53.330;11.498;2024-01-30T01:37:06;23869.66;;;-147.39;70.12
3524;BME280;1776;53.330;11.498;2024-01-30T01:39:32;23867.63;;;-147.39;70.35
3524;BME280;1776;53.330;11.498;2024-01-30T01:41:57;23869.66;;;-147.39;70.84
3524;BME280;1776;53.330;11.498;2024-01-30T01:44:22;23812.72;;;-147.39;71.10
3524;BME280;1776;53.330;11.498;2024-01-30T01:46:48;23890.00;;;-147.39;70.87
3524;BME280;1776;53.330;11.498;2024-01-30T01:49:13;23861.53;;;-147.39;71.12
3524;BME280;1776;53.330;11.498;2024-01-30T01:51:39;23869.66;;;-147.39;71.38
3524;BME280;1776;53.330;11.498;2024-01-30T01:54:06;23829.00;;;-147.39;71.37
3524;BME280;1776;53.330;11.498;2024-01-30T01:56:33;23861.53;;;-147.39;71.45
3524;BME280;1776;53.330;11.498;2024-01-30T01:59:00;23853.38;;;-147.39;71.42
3524;BME280;1776;53.330;11.498;2024-01-30T02:01:29;23849.31;;;-147.39;71.28
3524;BME280;1776;53.330;11.498;2024-01-30T02:03:56;23843.22;;;-147.39;71.40
3524;BME280;1776;53.330;11.498;2024-01-30T02:06:21;23843.22;;;-147.39;71.35
3524;BME280;1776;53.330;11.498;2024-01-30T02:08:46;23853.38;;;-147.39;71.26
3524;BME280;1776;53.330;11.498;2024-01-30T02:11:11;23826.97;;;-147.39;71.02
3524;BME280;1776;53.330;11.498;2024-01-30T02:13:37;23835.09;;;-147.39;71.01
3524;BME280;1776;53.330;11.498;2024-01-30T02:16:02;23841.19;;;-147.39;71.51
3524;BME280;1776;53.330;11.498;2024-01-30T02:18:28;23869.66;;;-147.39;71.59
3524;BME280;1776;53.330;11.498;2024-01-30T02:20:54;23843.22;;;-147.39;71.63
3524;BME280;1776;53.330;11.498;2024-01-30T02:23:23;23812.72;;;-147.39;71.23
3524;BME280;1776;53.330;11.498;2024-01-30T02:25:49;23843.22;;;-147.39;71.08
3524;BME280;1776;53.330;11.498;2024-01-30T02:28:15;23849.31;;;-147.39;70.91
3524;BME280;1776;53.330;11.498;2024-01-30T02:30:42;23881.84;;;-147.39;71.02
3524;BME280;1776;53.330;11.498;2024-01-30T02:33:08;23837.13;;;-147.39;70.99
3524;BME280;1776;53.330;11.498;2024-01-30T02:35:33;23816.78;;;-147.39;71.44
3524;BME280;1776;53.330;11.498;2024-01-30T02:37:59;23826.97;;;-147.39;71.29
3524;BME280;1776;53.330;11.498;2024-01-30T02:40:24;23843.22;;;-147.39;71.19
3524;BME280;1776;53.330;11.498;2024-01-30T02:42:49;23810.69;;;-147.39;71.26
3524;BME280;1776;53.330;11.498;2024-01-30T02:45:15;23851.34;;;-147.39;71.31
3524;BME280;1776;53.330;11.498;2024-01-30T02:47:40;23824.94;;;-147.39;71.94
3524;BME280;1776;53.330;11.498;2024-01-30T02:50:05;23768.00;;;-147.39;72.56
3524;BME280;1776;53.330;11.498;2024-01-30T02:52:31;23794.44;;;-147.39;72.87
3524;BME280;1776;53.330;11.498;2024-01-30T02:54:56;23768.00;;;-147.39;72.93
3524;BME280;1776;53.330;11.498;2024-01-30T02:57:22;23784.25;;;-147.39;72.78
3524;BME280;1776;53.330;11.498;2024-01-30T02:59:47;23835.09;;;-147.39;72.73
3524;BME280;1776;53.330;11.498;2024-01-30T03:02:12;23765.97;;;-147.39;72.95
3524;BME280;1776;53.330;11.498;2024-01-30T03:04:40;23792.41;;;-147.39;72.66
3524;BME280;1776;53.330;11.498;2024-01-30T03:07:06;23802.56;;;-147.39;72.18
3524;BME280;1776;53.330;11.498;2024-01-30T03:09:31;23784.25;;;-147.39;72.16
3524;BME280;1776;53.330;11.498;2024-01-30T03:11:56;23808.66;;;-147.39;71.85
3524;BME280;1776;53.330;11.498;2024-01-30T03:14:21;23786.28;;;-147.39;71.72
3524;BME280;1776;53.330;11.498;2024-01-30T03:16:47;23841.19;;;-147.39;71.50
3524;BME280;1776;53.330;11.498;2024-01-30T03:19:12;23822.88;;;-147.39;71.98
3524;BME280;1776;53.330;11.498;2024-01-30T03:21:37;23804.59;;;-147.39;72.13
3524;BME280;1776;53.330;11.498;2024-01-30T03:24:03;23780.19;;;-147.39;72.43
3524;BME280;1776;53.330;11.498;2024-01-30T03:26:28;23778.16;;;-147.39;72.83
3524;BME280;1776;53.330;11.498;2024-01-30T03:28:53;23784.25;;;-147.39;72.64
3524;BME280;1776;53.330;11.498;2024-01-30T03:31:19;23802.56;;;-147.39;73.08
3524;BME280;1776;53.330;11.498;2024-01-30T03:33:44;23776.13;;;-147.39;72.90
3524;BME280;1776;53.330;11.498;2024-01-30T03:36:09;23759.88;;;-147.39;73.13
3524;BME280;1776;53.330;11.498;2024-01-30T03:38:35;23780.19;;;-147.39;73.09
3524;BME280;1776;53.330;11.498;2024-01-30T03:41:00;23782.22;;;-147.39;72.94
3524;BME280;1776;53.330;11.498;2024-01-30T03:43:25;23755.81;;;-147.39;72.80
3524;BME280;1776;53.330;11.498;2024-01-30T03:45:51;23770.03;;;-147.39;73.95
3524;BME280;1776;53.330;11.498;2024-01-30T03:48:16;23749.69;;;-147.39;74.46
3524;BME280;1776;53.330;11.498;2024-01-30T03:50:42;23774.09;;;-147.39;75.12
3524;BME280;1776;53.330;11.498;2024-01-30T03:53:07;23745.63;;;-147.39;75.42
3524;BME280;1776;53.330;11.498;2024-01-30T03:55:32;23698.88;;;-147.39;75.79
3524;BME280;1776;53.330;11.498;2024-01-30T03:57:57;23717.16;;;-147.39;76.56
3524;BME280;1776;53.330;11.498;2024-01-30T04:00:23;23723.28;;;-147.39;77.05
3524;BME280;1776;53.330;11.498;2024-01-30T04:02:48;23713.09;;;-147.39;76.73
3524;BME280;1776;53.330;11.498;2024-01-30T04:05:13;23719.19;;;-147.39;76.48
3524;BME280;1776;53.330;11.498;2024-01-30T04:07:38;23723.28;;;-147.39;76.06
3524;BME280;1776;53.330;11.498;2024-01-30T04:10:04;23725.31;;;-147.39;75.43
3524;BME280;1776;53.330;11.498;2024-01-30T04:12:31;23743.59;;;-147.39;74.70
3524;BME280;1776;53.330;11.498;2024-01-30T04:14:56;23735.47;;;-147.39;74.62
3524;BME280;1776;53.330;11.498;2024-01-30T04:17:22;23753.75;;;-147.39;75.10
3524;BME280;1776;53.330;11.498;2024-01-30T04:19:47;23694.81;;;-147.39;74.69
3524;BME280;1776;53.330;11.498;2024-01-30T04:22:12;23741.56;;;-147.39;74.24
3524;BME280;1776;53.330;11.498;2024-01-30T04:24:37;23735.47;;;-147.39;74.07
3524;BME280;1776;53.330;11.498;2024-01-30T04:27:03;23733.44;;;-147.39;73.63
3524;BME280;1776;53.330;11.498;2024-01-30T04:29:28;23729.38;;;-147.39;74.22
3524;BME280;1776;53.330;11.498;2024-01-30T04:31:53;23776.13;;;-147.39;74.41
3524;BME280;1776;53.330;11.498;2024-01-30T04:34:19;23778.16;;;-147.39;74.55
3524;BME280;1776;53.330;11.498;2024-01-30T04:36:44;23713.09;;;-147.39;74.71
3524;BME280;1776;53.330;11.498;2024-01-30T04:39:10;23759.88;;;-147.39;75.73
3524;BME280;1776;53.330;11.498;2024-01-30T04:41:35;23717.16;;;-147.39;75.51
3524;BME280;1776;53.330;11.498;2024-01-30T04:44:01;23674.47;;;-147.39;75.37
3524;BME280;1776;53.330;11.498;2024-01-30T04:46:26;23731.41;;;-147.39;75.71
3524;BME280;1776;53.330;11.498;2024-01-30T04:48:51;23696.84;;;-147.39;75.89
3524;BME280;1776;53.330;11.498;2024-01-30T04:51:16;23696.84;;;-147.39;75.87
3524;BME280;1776;53.330;11.498;2024-01-30T04:53:42;23682.59;;;-147.39;75.38
3524;BME280;1776;53.330;11.498;2024-01-30T04:56:07;23658.22;;;-147.39;75.30
3524;BME280;1776;53.330;11.498;2024-01-30T04:58:32;23670.41;;;-147.39;75.91
3524;BME280;1776;53.330;11.498;2024-01-30T05:00:57;23668.38;;;-147.39;76.27
3524;BME280;1776;53.330;11.498;2024-01-30T05:03:23;23704.97;;;-147.39;76.70
3524;BME280;1776;53.330;11.498;2024-01-30T05:05:49;23698.88;;;-147.39;76.82
3524;BME280;1776;53.330;11.498;2024-01-30T05:08:14;23631.78;;;-147.39;77.36
3524;BME280;1776;53.330;11.498;2024-01-30T05:10:39;23652.13;;;-147.39;76.80
3524;BME280;1776;53.330;11.498;2024-01-30T05:13:05;23666.34;;;-147.39;76.84
3524;BME280;1776;53.330;11.498;2024-01-30T05:15:30;23680.56;;;-147.39;77.04
3524;BME280;1776;53.330;11.498;2024-01-30T05:17:55;23656.19;;;-147.39;76.24
3524;BME280;1776;53.330;11.498;2024-01-30T05:20:20;23709.03;;;-147.39;75.70
3524;BME280;1776;53.330;11.498;2024-01-30T05:22:46;23662.28;;;-147.39;75.67
3524;BME280;1776;53.330;11.498;2024-01-30T05:25:12;23656.19;;;-147.39;75.63
3524;BME280;1776;53.330;11.498;2024-01-30T05:27:38;23680.56;;;-147.39;75.31
3524;BME280;1776;53.330;11.498;2024-01-30T05:30:05;23709.03;;;-147.39;75.53
3524;BME280;1776;53.330;11.498;2024-01-30T05:32:30;23664.31;;;-147.39;76.25
3524;BME280;1776;53.330;11.498;2024-01-30T05:34:55;23684.63;;;-147.39;75.83
3524;BME280;1776;53.330;11.498;2024-01-30T05:37:20;23666.34;;;-147.39;75.91
3524;BME280;1776;53.330;11.498;2024-01-30T05:39:46;23646.00;;;-147.39;76.13
3524;BME280;1776;53.330;11.498;2024-01-30T05:42:11;23664.31;;;-147.39;76.44
3524;BME280;1776;53.330;11.498;2024-01-30T05:44:36;23704.97;;;-147.39;76.00
3524;BME280;1776;53.330;11.498;2024-01-30T05:47:02;23646.00;;;-147.39;75.98
3524;BME280;1776;53.330;11.498;2024-01-30T05:49:27;23603.31;;;-147.39;76.65
3524;BME280;1776;53.330;11.498;2024-01-30T05:51:53;23650.09;;;-147.39;77.19
3524;BME280;1776;53.330;11.498;2024-01-30T05:54:19;23631.78;;;-147.39;76.55
3524;BME280;1776;53.330;11.498;2024-01-30T05:56:44;23635.84;;;-147.39;76.90
3524;BME280;1776;53.330;11.498;2024-01-30T05:59:09;23625.69;;;-147.39;77.30
3524;BME280;1776;53.330;11.498;2024-01-30T06:01:34;23611.44;;;-147.39;77.56
3524;BME280;1776;53.330;11.498;2024-01-30T06:04:01;23617.56;;;-147.39;77.46
3524;BME280;1776;53.330;11.498;2024-01-30T06:06:26;23629.75;;;-147.39;77.51
3524;BME280;1776;53.330;11.498;2024-01-30T06:08:51;23605.34;;;-147.39;76.92
3524;BME280;1776;53.330;11.498;2024-01-30T06:11:17;23605.34;;;-147.39;77.93
3524;BME280;1776;53.330;11.498;2024-01-30T06:13:42;23601.28;;;-147.39;78.52
3524;BME280;1776;53.330;11.498;2024-01-30T06:16:10;23562.66;;;-147.39;78.76
3524;BME280;1776;53.330;11.498;2024-01-30T06:18:36;23550.47;;;-147.39;79.79
3524;BME280;1776;53.330;11.498;2024-01-30T06:21:02;23580.97;;;-147.39;79.49
3524;BME280;1776;53.330;11.498;2024-01-30T06:23:27;23548.44;;;-147.39;79.05
3524;BME280;1776;53.330;11.498;2024-01-30T06:25:52;23570.78;;;-147.39;78.86
3524;BME280;1776;53.330;11.498;2024-01-30T06:28:17;23564.69;;;-147.39;78.91
3524;BME280;1776;53.330;11.498;2024-01-30T06:30:43;23552.50;;;-147.39;79.32
3524;BME280;1776;53.330;11.498;2024-01-30T06:33:10;23511.84;;;-147.39;79.12
3524;BME280;1776;53.330;11.498;2024-01-30T06:35:36;23532.16;;;-147.39;79.14
3524;BME280;1776;53.330;11.498;2024-01-30T06:38:04;23522.00;;;-147.39;79.54
3524;BME280;1776;53.330;11.498;2024-01-30T06:40:30;23552.50;;;-147.39;79.93
3524;BME280;1776;53.330;11.498;2024-01-30T06:42:55;23522.00;;;-147.39;80.18
3524;BME280;1776;53.330;11.498;2024-01-30T06:45:20;23530.13;;;-147.39;80.39
3524;BME280;1776;53.330;11.498;2024-01-30T06:47:46;23509.81;;;-147.39;80.54
3524;BME280;1776;53.330;11.498;2024-01-30T06:50:11;23503.72;;;-147.39;80.63
3524;BME280;1776;53.330;11.498;2024-01-30T06:52:36;23475.25;;;-147.39;80.60
3524;BME280;1776;53.330;11.498;2024-01-30T06:55:01;23495.56;;;-147.39;80.62
3524;BME280;1776;53.330;11.498;2024-01-30T06:57:28;23495.56;;;-147.39;80.58
3524;BME280;1776;53.330;11.498;2024-01-30T06:59:54;23442.72;;;-147.39;81.02
3524;BME280;1776;53.330;11.498;2024-01-30T07:02:19;23473.22;;;-147.39;80.98
3524;BME280;1776;53.330;11.498;2024-01-30T07:04:44;23432.56;;;-147.39;81.48
3524;BME280;1776;53.330;11.498;2024-01-30T07:07:10;23442.72;;;-147.39;82.21
3524;BME280;1776;53.330;11.498;2024-01-30T07:09:37;23434.59;;;-147.39;82.46
3524;BME280;1776;53.330;11.498;2024-01-30T07:12:03;23448.81;;;-147.39;81.90
3524;BME280;1776;53.330;11.498;2024-01-30T07:14:29;23422.38;;;-147.39;81.99
3524;BME280;1776;53.330;11.498;2024-01-30T07:16:54;23412.22;;;-147.39;81.48
3524;BME280;1776;53.330;11.498;2024-01-30T07:19:19;23446.78;;;-147.39;80.69
3524;BME280;1776;53.330;11.498;2024-01-30T07:21:44;23432.56;;;-147.39;80.47
3524;BME280;1776;53.330;11.498;2024-01-30T07:24:11;23432.56;;;-147.39;80.02
3524;BME280;1776;53.330;11.498;2024-01-30T07:26:37;23489.47;;;-147.39;78.95
3524;BME280;1776;53.330;11.498;2024-01-30T07:29:02;23485.41;;;-147.39;78.72
3524;BME280;1776;53.330;11.498;2024-01-30T07:31:28;23505.75;;;-147.39;78.59
3524;BME280;1776;53.330;11.498;2024-01-30T07:33:53;23487.44;;;-147.39;78.79
3524;BME280;1776;53.330;11.498;2024-01-30T07:36:19;23491.50;;;-147.39;79.68
3524;BME280;1776;53.330;11.498;2024-01-30T07:38:45;23499.63;;;-147.39;79.68
3524;BME280;1776;53.330;11.498;2024-01-30T07:41:10;23475.25;;;-147.39;79.36
3524;BME280;1776;53.330;11.498;2024-01-30T07:43:35;23491.50;;;-147.39;78.78
3524;BME280;1776;53.330;11.498;2024-01-30T07:46:01;23495.56;;;-147.39;78.73
3524;BME280;1776;53.330;11.498;2024-01-30T07:48:27;23570.78;;;-147.39;78.34
3524;BME280;1776;53.330;11.498;2024-01-30T07:50:53;23503.72;;;-147.39;78.28
3524;BME280;1776;53.330;11.498;2024-01-30T07:53:18;23495.56;;;-147.39;77.92
3524;BME280;1776;53.330;11.498;2024-01-30T07:55:43;23524.03;;;-147.39;78.03
3524;BME280;1776;53.330;11.498;2024-01-30T07:58:11;23560.63;;;-147.39;77.77
3524;BME280;1776;53.330;11.498;2024-01-30T08:00:37;23513.88;;;-147.39;77.46
3524;BME280;1776;53.330;11.498;2024-01-30T08:03:02;23489.47;;;-147.39;77.52
3524;BME280;1776;53.330;11.498;2024-01-30T08:05:28;23438.66;;;-147.39;76.96
3524;BME280;1776;53.330;11.498;2024-01-30T08:07:53;23505.75;;;-147.39;77.33
3524;BME280;1776;53.330;11.498;2024-01-30T08:10:20;23513.88;;;-147.39;77.23
3524;BME280;1776;53.330;11.498;2024-01-30T08:12:45;23530.13;;;-147.39;77.41
3524;BME280;1776;53.330;11.498;2024-01-30T08:15:11;23497.59;;;-147.39;78.07
3524;BME280;1776;53.330;11.498;2024-01-30T08:17:40;23444.75;;;-147.39;78.18
3524;BME280;1776;53.330;11.498;2024-01-30T08:20:06;23519.97;;;-147.39;78.66
3524;BME280;1776;53.330;11.498;2024-01-30T08:22:33;23475.25;;;-147.39;79.26
3524;BME280;1776;53.330;11.498;2024-01-30T08:24:58;23479.31;;;-147.39;79.64
3524;BME280;1776;53.330;11.498;2024-01-30T08:27:23;23442.72;;;-147.39;80.44
3524;BME280;1776;53.330;11.498;2024-01-30T08:29:49;23458.97;;;-147.39;80.57
3524;BME280;1776;53.330;11.498;2024-01-30T08:32:15;23493.53;;;-147.39;80.30
3524;BME280;1776;53.330;11.498;2024-01-30T08:34:40;23442.72;;;-147.39;80.87
3524;BME280;1776;53.330;11.498;2024-01-30T08:37:05;23393.94;;;-147.39;81.33
3524;BME280;1776;53.330;11.498;2024-01-30T08:39:31;23422.38;;;-147.39;81.07
3524;BME280;1776;53.330;11.498;2024-01-30T08:41:56;23410.19;;;-147.39;81.43
3524;BME280;1776;53.330;11.498;2024-01-30T08:44:21;23499.63;;;-147.39;80.77
3524;BME280;1776;53.330;11.498;2024-01-30T08:46:46;23426.44;;;-147.39;81.26
3524;BME280;1776;53.330;11.498;2024-01-30T08:49:13;23469.16;;;-147.39;80.74
3524;BME280;1776;53.330;11.498;2024-01-30T08:51:39;23156.09;;;-147.39;80.68
3524;BME280;1776;53.330;11.498;2024-01-30T08:54:04;23438.66;;;-147.39;80.06
3524;BME280;1776;53.330;11.498;2024-01-30T08:56:29;23446.78;;;-147.39;80.87
3524;BME280;1776;53.330;11.498;2024-01-30T08:58:55;23467.13;;;-147.39;80.20
3524;BME280;1776;53.330;11.498;2024-01-30T09:01:20;23517.94;;;-147.39;80.01
3524;BME280;1776;53.330;11.498;2024-01-30T09:03:45;23454.91;;;-147.39;80.25
3524;BME280;1776;53.330;11.498;2024-01-30T09:06:12;23505.75;;;-147.39;80.08
3524;BME280;1776;53.330;11.498;2024-01-30T09:08:37;23467.13;;;-147.39;79.95
3524;BME280;1776;53.330;11.498;2024-01-30T09:11:13;23487.44;;;-147.39;79.69
3524;BME280;1776;53.330;11.498;2024-01-30T09:13:38;23524.03;;;-147.39;78.74
3524;BME280;1776;53.330;11.498;2024-01-30T09:16:04;23570.78;;;-147.39;77.33
3524;BME280;1776;53.330;11.498;2024-01-30T09:18:30;23580.97;;;-147.39;76.57
3524;BME280;1776;53.330;11.498;2024-01-30T09:20:55;23633.81;;;-147.39;75.66
3524;BME280;1776;53.330;11.498;2024-01-30T09:23:20;23591.13;;;-147.39;75.28
3524;BME280;1776;53.330;11.498;2024-01-30T09:25:46;23621.63;;;-147.39;75.24
3524;BME280;1776;53.330;11.498;2024-01-30T09:28:12;23597.22;;;-147.39;75.54
3524;BME280;1776;53.330;11.498;2024-01-30T09:30:37;23670.41;;;-147.39;75.36
3524;BME280;1776;53.330;11.498;2024-01-30T09:33:02;23637.88;;;-147.39;75.75
3524;BME280;1776;53.330;11.498;2024-01-30T09:35:28;23578.94;;;-147.39;76.48
3524;BME280;1776;53.330;11.498;2024-01-30T09:37:54;23550.47;;;-147.39;78.11
3524;BME280;1776;53.330;11.498;2024-01-30T09:40:20;23570.78;;;-147.39;78.48
3524;BME280;1776;53.330;11.498;2024-01-30T09:42:47;23532.16;;;-147.39;78.53
3524;BME280;1776;53.330;11.498;2024-01-30T09:45:17;23501.66;;;-147.39;79.01
3524;BME280;1776;53.330;11.498;2024-01-30T09:47:44;23536.22;;;-147.39;79.47
3524;BME280;1776;53.330;11.498;2024-01-30T09:50:14;23501.66;;;-147.39;79.70
3524;BME280;1776;53.330;11.498;2024-01-30T09:52:40;23646.00;;;-147.39;79.56
3524;BME280;1776;53.330;11.498;2024-01-30T09:55:06;23534.19;;;-147.39;79.30
3524;BME280;1776;53.330;11.498;2024-01-30T09:57:31;23538.25;;;-147.39;78.96
3524;BME280;1776;53.330;11.498;2024-01-30T09:59:57;23558.59;;;-147.39;78.66
3524;BME280;1776;53.330;11.498;2024-01-30T10:02:23;23597.22;;;-147.39;78.55
3524;BME280;1776;53.330;11.498;2024-01-30T10:04:50;23568.75;;;-147.39;78.64
3524;BME280;1776;53.330;11.498;2024-01-30T10:07:16;23572.81;;;-147.39;78.89
3524;BME280;1776;53.330;11.498;2024-01-30T10:09:42;23554.53;;;-147.39;79.17
3524;BME280;1776;53.330;11.498;2024-01-30T10:12:08;23572.81;;;-147.39;79.09
3524;BME280;1776;53.330;11.498;2024-01-30T10:14:37;23578.94;;;-147.39;79.47
3524;BME280;1776;53.330;11.498;2024-01-30T10:17:03;23558.59;;;-147.39;79.86
3524;BME280;1776;53.330;11.498;2024-01-30T10:19:29;23576.88;;;-147.39;79.32
3524;BME280;1776;53.330;11.498;2024-01-30T10:21:54;23597.22;;;-147.39;78.55
3524;BME280;1776;53.330;11.498;2024-01-30T10:24:24;23580.97;;;-147.39;78.71
3524;BME280;1776;53.330;11.498;2024-01-30T10:26:49;23546.41;;;-147.39;78.83
3524;BME280;1776;53.330;11.498;2024-01-30T10:29:14;23576.88;;;-147.39;78.88
3524;BME280;1776;53.330;11.498;2024-01-30T10:31:39;23593.16;;;-147.39;78.28
3524;BME280;1776;53.330;11.498;2024-01-30T10:34:05;23613.47;;;-147.39;78.41
3524;BME280;1776;53.330;11.498;2024-01-30T10:36:32;23613.47;;;-147.39;78.34
3524;BME280;1776;53.330;11.498;2024-01-30T10:39:04;23660.25;;;-147.39;78.15
3524;BME280;1776;53.330;11.498;2024-01-30T10:41:43;23646.00;;;-147.39;77.62
3524;BME280;1776;53.330;11.498;2024-01-30T10:44:10;23619.59;;;-147.39;77.26
3524;BME280;1776;53.330;11.498;2024-01-30T10:46:38;23646.00;;;-147.39;77.38
3524;BME280;1776;53.330;11.498;2024-01-30T10:49:04;23682.59;;;-147.39;77.43
3524;BME280;1776;53.330;11.498;2024-01-30T10:51:31;23639.91;;;-147.39;76.94
3524;BME280;1776;53.330;11.498;2024-01-30T10:53:56;23682.59;;;-147.39;77.12
3524;BME280;1776;53.330;11.498;2024-01-30T10:56:23;23719.19;;;-147.39;77.03
3524;BME280;1776;53.330;11.498;2024-01-30T10:58:52;23601.28;;;-147.39;76.94
3524;BME280;1776;53.330;11.498;2024-01-30T11:01:19;23648.03;;;-147.39;77.43
3524;BME280;1776;53.330;11.498;2024-01-30T11:03:45;23635.84;;;-147.39;77.11
3524;BME280;1776;53.330;11.498;2024-01-30T11:06:11;23646.00;;;-147.39;77.19
3524;BME280;1776;53.330;11.498;2024-01-30T11:08:43;23694.81;;;-147.39;77.06
3524;BME280;1776;53.330;11.498;2024-01-30T11:11:09;23637.88;;;-147.39;76.88
3524;BME280;1776;53.330;11.498;2024-01-30T11:13:35;23652.13;;;-147.39;77.07
3524;BME280;1776;53.330;11.498;2024-01-30T11:16:02;23680.56;;;-147.39;76.85
3524;BME280;1776;53.330;11.498;2024-01-30T11:18:31;23686.69;;;-147.39;76.50
3524;BME280;1776;53.330;11.498;2024-01-30T11:20:57;23707.00;;;-147.39;76.23
3524;BME280;1776;53.330;11.498;2024-01-30T11:23:23;23702.94;;;-147.39;75.61
3524;BME280;1776;53.330;11.498;2024-01-30T11:25:55;23696.84;;;-147.39;75.81
3524;BME280;1776;53.330;11.498;2024-01-30T11:28:21;23688.72;;;-147.39;75.12
3524;BME280;1776;53.330;11.498;2024-01-30T11:30:47;23772.06;;;-147.39;75.40
3524;BME280;1776;53.330;11.498;2024-01-30T11:33:26;23723.28;;;-147.39;75.51
3524;BME280;1776;53.330;11.498;2024-01-30T11:35:52;23707.00;;;-147.39;75.20
3524;BME280;1776;53.330;11.498;2024-01-30T11:38:18;23731.41;;;-147.39;75.62
3524;BME280;1776;53.330;11.498;2024-01-30T11:40:43;23745.63;;;-147.39;75.25
3524;BME280;1776;53.330;11.498;2024-01-30T11:43:08;23776.13;;;-147.39;74.51
3524;BME280;1776;53.330;11.498;2024-01-30T11:45:35;23772.06;;;-147.39;73.90
3524;BME280;1776;53.330;11.498;2024-01-30T11:48:01;23782.22;;;-147.39;73.86
3524;BME280;1776;53.330;11.498;2024-01-30T11:50:29;23820.84;;;-147.39;73.73
3524;BME280;1776;53.330;11.498;2024-01-30T11:52:54;23829.00;;;-147.39;73.25
3524;BME280;1776;53.330;11.498;2024-01-30T11:55:20;23780.19;;;-147.39;73.68
3524;BME280;1776;53.330;11.498;2024-01-30T11:57:45;23794.44;;;-147.39;73.79
3524;BME280;1776;53.330;11.498;2024-01-30T12:00:17;23574.84;;;-147.39;73.96
3524;BME280;1776;53.330;11.498;2024-01-30T12:02:44;23841.19;;;-147.39;73.63
3524;BME280;1776;53.330;11.498;2024-01-30T12:05:09;23751.72;;;-147.39;73.70
3524;BME280;1776;53.330;11.498;2024-01-30T12:07:36;23641.94;;;-147.39;74.07
3524;BME280;1776;53.330;11.498;2024-01-30T12:10:02;23869.66;;;-147.39;74.03
3524;BME280;1776;53.330;11.498;2024-01-30T12:12:28;23798.50;;;-147.39;74.10
3524;BME280;1776;53.330;11.498;2024-01-30T12:14:55;23776.13;;;-147.39;74.45
3524;BME280;1776;53.330;11.498;2024-01-30T12:17:31;23784.25;;;-147.39;74.51
3524;BME280;1776;53.330;11.498;2024-01-30T12:20:08;23782.22;;;-147.39;74.67
3524;BME280;1776;53.330;11.498;2024-01-30T12:22:38;23776.13;;;-147.39;74.52
3524;BME280;1776;53.330;11.498;2024-01-30T12:25:05;23784.25;;;-147.39;74.51
3524;BME280;1776;53.330;11.498;2024-01-30T12:27:32;23763.94;;;-147.39;74.47
3524;BME280;1776;53.330;11.498;2024-01-30T12:29:57;23739.53;;;-147.39;74.81
3524;BME280;1776;53.330;11.498;2024-01-30T12:32:23;23808.66;;;-147.39;74.83
3524;BME280;1776;53.330;11.498;2024-01-30T12:34:48;23790.38;;;-147.39;74.70
3524;BME280;1776;53.330;11.498;2024-01-30T12:37:14;23796.47;;;-147.39;75.01
3524;BME280;1776;53.330;11.498;2024-01-30T12:39:40;23829.00;;;-147.39;74.68
3524;BME280;1776;53.330;11.498;2024-01-30T12:42:05;23824.94;;;-147.39;74.58